sensor_id;sensor_type;location;lat;lon;timestamp;pressure;altitude;pressure_sealevel;temperature;humidity
67015;BME280;1033;52.560;13.374;2023-07-08T00:01:40;101506.03;;;17.74;66.92
67015;BME280;1033;52.560;13.374;2023-07-08T00:04:11;101509.28;;;17.94;67.10
67015;BME280;1033;52.560;13.374;2023-07-08T00:06:40;101517.16;;;18.02;66.75
67015;BME280;1033;52.560;13.374;2023-07-08T00:09:11;101513.81;;;17.89;65.79
67015;BME280;1033;52.560;13.374;2023-07-08T00:11:40;101524.84;;;17.82;64.88
67015;BME280;1033;52.560;13.374;2023-07-08T00:14:09;101512.22;;;17.69;65.61
67015;BME280;1033;52.560;13.374;2023-07-08T00:16:38;101514.88;;;17.58;66.66
67015;BME280;1033;52.560;13.374;2023-07-08T00:19:10;101516.97;;;17.44;66.83
67015;BME280;1033;52.560;13.374;2023-07-08T00:21:39;101510.38;;;17.52;67.16
67015;BME280;1033;52.560;13.374;2023-07-08T00:24:08;101505.59;;;17.47;66.97
67015;BME280;1033;52.560;13.374;2023-07-08T00:26:38;101508.31;;;17.47;67.14
67015;BME280;1033;52.560;13.374;2023-07-08T00:29:09;101502.31;;;17.38;67.82
67015;BME280;1033;52.560;13.374;2023-07-08T00:31:40;101501.97;;;17.35;68.31
67015;BME280;1033;52.560;13.374;2023-07-08T00:34:10;101507.75;;;17.27;68.26
67015;BME280;1033;52.560;13.374;2023-07-08T00:36:39;101506.56;;;17.23;68.49
67015;BME280;1033;52.560;13.374;2023-07-08T00:39:14;101504.88;;;17.22;69.03
67015;BME280;1033;52.560;13.374;2023-07-08T00:41:44;101505.72;;;17.22;70.21
67015;BME280;1033;52.560;13.374;2023-07-08T00:44:14;101510.06;;;17.12;68.70
67015;BME280;1033;52.560;13.374;2023-07-08T00:46:50;101511.19;;;17.22;67.94
67015;BME280;1033;52.560;13.374;2023-07-08T00:49:28;101512.94;;;17.17;68.72
67015;BME280;1033;52.560;13.374;2023-07-08T00:52:19;101514.03;;;16.98;69.28
67015;BME280;1033;52.560;13.374;2023-07-08T00:54:53;101512.84;;;16.93;70.07
67015;BME280;1033;52.560;13.374;2023-07-08T00:57:25;101508.72;;;17.03;67.32
67015;BME280;1033;52.560;13.374;2023-07-08T01:00:10;101512.41;;;17.26;66.05
67015;BME280;1033;52.560;13.374;2023-07-08T01:02:44;101507.34;;;17.42;65.65
67015;BME280;1033;52.560;13.374;2023-07-08T01:05:18;101506.72;;;17.39;65.40
67015;BME280;1033;52.560;13.374;2023-07-08T01:07:53;101511.97;;;17.41;65.05
67015;BME280;1033;52.560;13.374;2023-07-08T01:10:28;101509.13;;;17.48;64.70
67015;BME280;1033;52.560;13.374;2023-07-08T01:13:02;101514.50;;;17.43;64.98
67015;BME280;1033;52.560;13.374;2023-07-08T01:15:39;101504.22;;;17.38;64.68
67015;BME280;1033;52.560;13.374;2023-07-08T01:18:11;101500.69;;;17.37;64.96
67015;BME280;1033;52.560;13.374;2023-07-08T01:20:45;101501.75;;;17.36;65.14
67015;BME280;1033;52.560;13.374;2023-07-08T01:23:17;101498.31;;;17.41;65.52
67015;BME280;1033;52.560;13.374;2023-07-08T01:25:47;101496.22;;;17.25;66.20
67015;BME280;1033;52.560;13.374;2023-07-08T01:28:16;101497.75;;;17.21;66.92
67015;BME280;1033;52.560;13.374;2023-07-08T01:30:46;101500.66;;;17.08;67.39
67015;BME280;1033;52.560;13.374;2023-07-08T01:33:20;101495.97;;;16.97;67.90
67015;BME280;1033;52.560;13.374;2023-07-08T01:35:51;101497.50;;;16.92;67.97
67015;BME280;1033;52.560;13.374;2023-07-08T01:38:25;101487.59;;;16.91;67.54
67015;BME280;1033;52.560;13.374;2023-07-08T01:40:56;101489.09;;;17.06;67.31
67015;BME280;1033;52.560;13.374;2023-07-08T01:43:33;101485.16;;;17.02;67.82
67015;BME280;1033;52.560;13.374;2023-07-08T01:46:03;101480.03;;;16.93;67.77
67015;BME280;1033;52.560;13.374;2023-07-08T01:48:39;101482.16;;;16.91;67.51
67015;BME280;1033;52.560;13.374;2023-07-08T01:51:09;101478.41;;;16.86;67.52
67015;BME280;1033;52.560;13.374;2023-07-08T01:54:04;101482.31;;;16.78;68.47
67015;BME280;1033;52.560;13.374;2023-07-08T01:56:34;101476.00;;;16.78;69.80
67015;BME280;1033;52.560;13.374;2023-07-08T01:59:03;101473.81;;;17.16;69.55
67015;BME280;1033;52.560;13.374;2023-07-08T02:01:32;101469.78;;;16.89;69.18
67015;BME280;1033;52.560;13.374;2023-07-08T02:04:02;101474.88;;;16.67;69.81
67015;BME280;1033;52.560;13.374;2023-07-08T02:06:31;101479.84;;;16.52;70.75
67015;BME280;1033;52.560;13.374;2023-07-08T02:09:19;101480.75;;;16.46;70.67
67015;BME280;1033;52.560;13.374;2023-07-08T02:11:49;101475.59;;;16.38;70.13
67015;BME280;1033;52.560;13.374;2023-07-08T02:14:18;101479.25;;;16.50;69.82
67015;BME280;1033;52.560;13.374;2023-07-08T02:16:47;101477.19;;;16.45;69.97
67015;BME280;1033;52.560;13.374;2023-07-08T02:19:20;101487.28;;;16.45;70.82
67015;BME280;1033;52.560;13.374;2023-07-08T02:21:49;101479.63;;;16.53;70.43
67015;BME280;1033;52.560;13.374;2023-07-08T02:24:21;101479.00;;;16.33;70.54
67015;BME280;1033;52.560;13.374;2023-07-08T02:26:50;101474.53;;;16.21;70.86
67015;BME280;1033;52.560;13.374;2023-07-08T02:29:20;101473.72;;;16.14;71.21
67015;BME280;1033;52.560;13.374;2023-07-08T02:31:49;101482.88;;;16.26;72.85
67015;BME280;1033;52.560;13.374;2023-07-08T02:34:18;101475.00;;;16.54;71.57
67015;BME280;1033;52.560;13.374;2023-07-08T02:36:48;101479.47;;;16.48;72.15
67015;BME280;1033;52.560;13.374;2023-07-08T02:39:17;101469.56;;;16.72;71.50
67015;BME280;1033;52.560;13.374;2023-07-08T02:41:47;101476.16;;;16.83;71.16
67015;BME280;1033;52.560;13.374;2023-07-08T02:44:16;101473.81;;;16.68;70.06
67015;BME280;1033;52.560;13.374;2023-07-08T02:46:45;101475.22;;;16.52;70.24
67015;BME280;1033;52.560;13.374;2023-07-08T02:49:15;101479.31;;;16.25;71.00
67015;BME280;1033;52.560;13.374;2023-07-08T02:51:46;101476.94;;;16.29;70.85
67015;BME280;1033;52.560;13.374;2023-07-08T02:54:15;101475.41;;;16.15;71.09
67015;BME280;1033;52.560;13.374;2023-07-08T02:56:44;101481.75;;;16.08;71.25
67015;BME280;1033;52.560;13.374;2023-07-08T02:59:15;101479.19;;;16.14;70.95
67015;BME280;1033;52.560;13.374;2023-07-08T03:01:44;101476.38;;;16.02;71.56
67015;BME280;1033;52.560;13.374;2023-07-08T03:04:14;101471.28;;;16.48;71.78
67015;BME280;1033;52.560;13.374;2023-07-08T03:06:44;101477.25;;;16.39;70.22
67015;BME280;1033;52.560;13.374;2023-07-08T03:09:14;101482.16;;;16.55;69.97
67015;BME280;1033;52.560;13.374;2023-07-08T03:11:43;101484.09;;;16.48;68.92
67015;BME280;1033;52.560;13.374;2023-07-08T03:14:13;101471.09;;;16.68;69.47
67015;BME280;1033;52.560;13.374;2023-07-08T03:16:43;101478.84;;;16.46;69.71
67015;BME280;1033;52.560;13.374;2023-07-08T03:19:12;101481.22;;;16.43;70.51
67015;BME280;1033;52.560;13.374;2023-07-08T03:21:43;101476.06;;;16.53;69.95
67015;BME280;1033;52.560;13.374;2023-07-08T03:24:12;101477.69;;;16.79;69.91
67015;BME280;1033;52.560;13.374;2023-07-08T03:26:47;101467.50;;;16.49;69.40
67015;BME280;1033;52.560;13.374;2023-07-08T03:29:19;101478.09;;;16.39;70.03
67015;BME280;1033;52.560;13.374;2023-07-08T03:31:48;101474.00;;;16.30;69.88
67015;BME280;1033;52.560;13.374;2023-07-08T03:34:18;101467.06;;;16.28;69.81
67015;BME280;1033;52.560;13.374;2023-07-08T03:36:49;101471.28;;;16.30;69.89
67015;BME280;1033;52.560;13.374;2023-07-08T03:39:25;101469.53;;;16.54;70.29
67015;BME280;1033;52.560;13.374;2023-07-08T03:41:55;101464.28;;;17.07;67.32
67015;BME280;1033;52.560;13.374;2023-07-08T03:44:25;101459.59;;;17.67;64.53
67015;BME280;1033;52.560;13.374;2023-07-08T03:46:54;101474.06;;;18.67;61.54
67015;BME280;1033;52.560;13.374;2023-07-08T03:49:24;101468.97;;;20.06;56.48
67015;BME280;1033;52.560;13.374;2023-07-08T03:51:55;101471.66;;;20.78;54.10
67015;BME280;1033;52.560;13.374;2023-07-08T03:54:26;101468.53;;;21.40;51.35
67015;BME280;1033;52.560;13.374;2023-07-08T03:56:57;101472.94;;;21.99;49.82
67015;BME280;1033;52.560;13.374;2023-07-08T03:59:29;101473.28;;;22.08;49.45
67015;BME280;1033;52.560;13.374;2023-07-08T04:01:59;101480.47;;;22.51;47.89
67015;BME280;1033;52.560;13.374;2023-07-08T04:04:29;101476.75;;;22.72;47.61
67015;BME280;1033;52.560;13.374;2023-07-08T04:06:58;101481.81;;;23.01;46.80
67015;BME280;1033;52.560;13.374;2023-07-08T04:09:27;101478.41;;;23.51;45.73
67015;BME280;1033;52.560;13.374;2023-07-08T04:11:56;101485.59;;;24.02;44.68
67015;BME280;1033;52.560;13.374;2023-07-08T04:14:28;101488.06;;;24.49;43.47
67015;BME280;1033;52.560;13.374;2023-07-08T04:16:59;101485.22;;;24.69;42.78
67015;BME280;1033;52.560;13.374;2023-07-08T04:19:28;101489.31;;;24.92;42.68
67015;BME280;1033;52.560;13.374;2023-07-08T04:21:57;101485.47;;;25.37;41.52
67015;BME280;1033;52.560;13.374;2023-07-08T04:24:26;101487.13;;;25.38;41.24
67015;BME280;1033;52.560;13.374;2023-07-08T04:26:55;101486.13;;;25.19;41.25
67015;BME280;1033;52.560;13.374;2023-07-08T04:29:25;101490.47;;;25.35;41.11
67015;BME280;1033;52.560;13.374;2023-07-08T04:31:55;101483.72;;;25.51;40.68
67015;BME280;1033;52.560;13.374;2023-07-08T04:34:24;101482.16;;;26.13;39.16
67015;BME280;1033;52.560;13.374;2023-07-08T04:36:53;101482.56;;;25.63;40.57
67015;BME280;1033;52.560;13.374;2023-07-08T04:39:22;101482.44;;;26.12;39.40
67015;BME280;1033;52.560;13.374;2023-07-08T04:41:52;101480.47;;;26.12;39.68
67015;BME280;1033;52.560;13.374;2023-07-08T04:44:21;101485.06;;;26.56;38.62
67015;BME280;1033;52.560;13.374;2023-07-08T04:46:54;101484.00;;;26.75;38.30
67015;BME280;1033;52.560;13.374;2023-07-08T04:49:24;101485.44;;;26.68;38.68
67015;BME280;1033;52.560;13.374;2023-07-08T04:51:59;101488.22;;;26.68;38.86
67015;BME280;1033;52.560;13.374;2023-07-08T04:54:30;101494.59;;;27.16;37.91
67015;BME280;1033;52.560;13.374;2023-07-08T04:56:59;101493.94;;;27.43;36.91
67015;BME280;1033;52.560;13.374;2023-07-08T04:59:28;101501.00;;;28.24;35.85
67015;BME280;1033;52.560;13.374;2023-07-08T05:02:03;101494.56;;;27.77;35.99
67015;BME280;1033;52.560;13.374;2023-07-08T05:04:34;101494.16;;;27.46;36.21
67015;BME280;1033;52.560;13.374;2023-07-08T05:07:04;101496.56;;;27.15;36.89
67015;BME280;1033;52.560;13.374;2023-07-08T05:09:33;101493.53;;;27.54;36.58
67015;BME280;1033;52.560;13.374;2023-07-08T05:12:04;101492.09;;;27.57;36.38
67015;BME280;1033;52.560;13.374;2023-07-08T05:14:34;101501.06;;;27.54;36.42
67015;BME280;1033;52.560;13.374;2023-07-08T05:17:04;101499.06;;;27.73;36.66
67015;BME280;1033;52.560;13.374;2023-07-08T05:19:34;101492.44;;;27.88;36.55
67015;BME280;1033;52.560;13.374;2023-07-08T05:22:03;101497.47;;;28.64;34.69
67015;BME280;1033;52.560;13.374;2023-07-08T05:24:32;101492.81;;;29.01;34.38
67015;BME280;1033;52.560;13.374;2023-07-08T05:27:01;101502.69;;;29.34;33.74
67015;BME280;1033;52.560;13.374;2023-07-08T05:29:31;101499.63;;;29.22;34.33
67015;BME280;1033;52.560;13.374;2023-07-08T05:32:00;101501.38;;;29.18;34.80
67015;BME280;1033;52.560;13.374;2023-07-08T05:34:33;101492.00;;;29.86;33.27
67015;BME280;1033;52.560;13.374;2023-07-08T05:37:02;101498.50;;;29.95;33.25
67015;BME280;1033;52.560;13.374;2023-07-08T05:39:31;101504.88;;;29.23;33.59
67015;BME280;1033;52.560;13.374;2023-07-08T05:42:01;101497.34;;;26.97;37.34
67015;BME280;1033;52.560;13.374;2023-07-08T05:44:30;101495.16;;;24.81;41.74
67015;BME280;1033;52.560;13.374;2023-07-08T05:46:59;101493.06;;;23.56;44.43
67015;BME280;1033;52.560;13.374;2023-07-08T05:49:29;101493.34;;;22.82;47.20
67015;BME280;1033;52.560;13.374;2023-07-08T05:51:59;101495.97;;;22.62;47.44
67015;BME280;1033;52.560;13.374;2023-07-08T05:54:33;101491.16;;;22.42;47.46
67015;BME280;1033;52.560;13.374;2023-07-08T05:57:02;101495.00;;;22.41;47.13
67015;BME280;1033;52.560;13.374;2023-07-08T05:59:32;101495.78;;;22.27;48.19
67015;BME280;1033;52.560;13.374;2023-07-08T06:02:03;101502.13;;;22.32;48.96
67015;BME280;1033;52.560;13.374;2023-07-08T06:04:32;101495.78;;;22.27;48.51
67015;BME280;1033;52.560;13.374;2023-07-08T06:07:13;101500.75;;;22.30;49.21
67015;BME280;1033;52.560;13.374;2023-07-08T06:09:44;101505.22;;;22.36;49.57
67015;BME280;1033;52.560;13.374;2023-07-08T06:12:14;101505.78;;;22.43;48.77
67015;BME280;1033;52.560;13.374;2023-07-08T06:14:43;101508.50;;;22.38;49.11
67015;BME280;1033;52.560;13.374;2023-07-08T06:17:12;101509.16;;;22.50;49.52
67015;BME280;1033;52.560;13.374;2023-07-08T06:19:41;101515.84;;;22.64;48.33
67015;BME280;1033;52.560;13.374;2023-07-08T06:22:11;101510.13;;;22.76;47.88
67015;BME280;1033;52.560;13.374;2023-07-08T06:25:01;101515.13;;;22.79;47.25
67015;BME280;1033;52.560;13.374;2023-07-08T06:27:30;101517.97;;;22.94;46.76
67015;BME280;1033;52.560;13.374;2023-07-08T06:30:00;101516.09;;;23.15;45.73
67015;BME280;1033;52.560;13.374;2023-07-08T06:32:30;101511.47;;;23.30;45.88
67015;BME280;1033;52.560;13.374;2023-07-08T06:34:59;101516.16;;;23.35;44.94
67015;BME280;1033;52.560;13.374;2023-07-08T06:37:28;101518.75;;;23.52;45.01
67015;BME280;1033;52.560;13.374;2023-07-08T06:39:57;101522.91;;;23.64;44.17
67015;BME280;1033;52.560;13.374;2023-07-08T06:42:28;101520.97;;;23.75;44.80
67015;BME280;1033;52.560;13.374;2023-07-08T06:45:08;101523.47;;;23.81;44.55
67015;BME280;1033;52.560;13.374;2023-07-08T06:47:38;101517.41;;;24.00;44.73
67015;BME280;1033;52.560;13.374;2023-07-08T06:50:08;101508.81;;;24.11;44.58
67015;BME280;1033;52.560;13.374;2023-07-08T06:52:37;101510.50;;;24.17;44.43
67015;BME280;1033;52.560;13.374;2023-07-08T06:55:08;101507.97;;;24.11;43.87
67015;BME280;1033;52.560;13.374;2023-07-08T06:57:39;101509.09;;;24.10;44.73
67015;BME280;1033;52.560;13.374;2023-07-08T07:00:10;101511.34;;;24.28;45.01
67015;BME280;1033;52.560;13.374;2023-07-08T07:02:40;101513.25;;;24.43;44.39
67015;BME280;1033;52.560;13.374;2023-07-08T07:05:09;101511.00;;;24.45;45.05
67015;BME280;1033;52.560;13.374;2023-07-08T07:07:38;101509.06;;;24.55;45.02
67015;BME280;1033;52.560;13.374;2023-07-08T07:10:08;101506.84;;;24.62;43.28
67015;BME280;1033;52.560;13.374;2023-07-08T07:12:38;101511.78;;;24.65;43.53
67015;BME280;1033;52.560;13.374;2023-07-08T07:15:08;101514.81;;;24.69;43.57
67015;BME280;1033;52.560;13.374;2023-07-08T07:17:37;101520.66;;;24.73;43.71
67015;BME280;1033;52.560;13.374;2023-07-08T07:20:08;101516.72;;;24.79;43.34
67015;BME280;1033;52.560;13.374;2023-07-08T07:22:37;101516.69;;;24.99;43.62
67015;BME280;1033;52.560;13.374;2023-07-08T07:25:07;101518.94;;;24.92;43.13
67015;BME280;1033;52.560;13.374;2023-07-08T07:27:37;101518.94;;;24.97;43.01
67015;BME280;1033;52.560;13.374;2023-07-08T07:30:07;101520.00;;;25.06;43.18
67015;BME280;1033;52.560;13.374;2023-07-08T07:32:40;101510.19;;;25.29;42.62
67015;BME280;1033;52.560;13.374;2023-07-08T07:35:10;101513.47;;;25.36;42.38
67015;BME280;1033;52.560;13.374;2023-07-08T07:37:42;101508.41;;;25.48;43.13
67015;BME280;1033;52.560;13.374;2023-07-08T07:40:13;101518.06;;;25.61;43.12
67015;BME280;1033;52.560;13.374;2023-07-08T07:42:46;101509.53;;;25.86;42.46
67015;BME280;1033;52.560;13.374;2023-07-08T07:45:15;101506.50;;;25.87;42.22
67015;BME280;1033;52.560;13.374;2023-07-08T07:47:44;101505.91;;;25.90;42.08
67015;BME280;1033;52.560;13.374;2023-07-08T07:50:13;101504.44;;;26.03;41.77
67015;BME280;1033;52.560;13.374;2023-07-08T07:52:42;101510.28;;;25.96;42.15
67015;BME280;1033;52.560;13.374;2023-07-08T07:55:14;101508.53;;;26.06;41.74
67015;BME280;1033;52.560;13.374;2023-07-08T07:57:46;101499.84;;;26.22;41.56
67015;BME280;1033;52.560;13.374;2023-07-08T08:00:15;101506.06;;;26.38;41.78
67015;BME280;1033;52.560;13.374;2023-07-08T08:02:45;101507.25;;;26.56;42.08
67015;BME280;1033;52.560;13.374;2023-07-08T08:05:14;101497.09;;;26.70;41.33
67015;BME280;1033;52.560;13.374;2023-07-08T08:07:44;101498.72;;;26.76;40.81
67015;BME280;1033;52.560;13.374;2023-07-08T08:10:15;101504.09;;;26.91;41.00
67015;BME280;1033;52.560;13.374;2023-07-08T08:12:46;101502.97;;;26.92;40.77
67015;BME280;1033;52.560;13.374;2023-07-08T08:15:21;101505.88;;;27.06;41.02
67015;BME280;1033;52.560;13.374;2023-07-08T08:17:50;101508.88;;;27.09;41.10
67015;BME280;1033;52.560;13.374;2023-07-08T08:20:23;101506.41;;;27.27;40.82
67015;BME280;1033;52.560;13.374;2023-07-08T08:22:52;101504.28;;;27.18;40.73
67015;BME280;1033;52.560;13.374;2023-07-08T08:25:23;101505.81;;;27.30;40.26
67015;BME280;1033;52.560;13.374;2023-07-08T08:27:54;101507.91;;;27.38;39.32
67015;BME280;1033;52.560;13.374;2023-07-08T08:30:23;101510.00;;;27.27;38.68
67015;BME280;1033;52.560;13.374;2023-07-08T08:32:52;101509.56;;;27.39;40.02
67015;BME280;1033;52.560;13.374;2023-07-08T08:35:21;101511.47;;;27.62;38.06
67015;BME280;1033;52.560;13.374;2023-07-08T08:37:51;101510.19;;;27.73;36.81
67015;BME280;1033;52.560;13.374;2023-07-08T08:40:21;101506.72;;;27.81;37.53
67015;BME280;1033;52.560;13.374;2023-07-08T08:43:00;101508.38;;;27.82;36.12
67015;BME280;1033;52.560;13.374;2023-07-08T08:45:36;101515.53;;;27.88;35.57
67015;BME280;1033;52.560;13.374;2023-07-08T08:48:15;101518.09;;;27.98;35.76
67015;BME280;1033;52.560;13.374;2023-07-08T08:50:51;101520.81;;;28.03;36.33
67015;BME280;1033;52.560;13.374;2023-07-08T08:53:40;101517.78;;;28.19;35.22
67015;BME280;1033;52.560;13.374;2023-07-08T08:56:18;101511.19;;;28.15;35.29
67015;BME280;1033;52.560;13.374;2023-07-08T08:58:56;101512.78;;;28.34;35.78
67015;BME280;1033;52.560;13.374;2023-07-08T09:01:27;101513.63;;;28.35;34.76
67015;BME280;1033;52.560;13.374;2023-07-08T09:04:02;101514.47;;;28.49;34.29
67015;BME280;1033;52.560;13.374;2023-07-08T09:06:35;101516.72;;;28.47;34.94
67015;BME280;1033;52.560;13.374;2023-07-08T09:09:11;101518.72;;;28.60;33.94
67015;BME280;1033;52.560;13.374;2023-07-08T09:11:50;101507.22;;;28.80;31.83
67015;BME280;1033;52.560;13.374;2023-07-08T09:14:25;101517.09;;;28.86;30.22
67015;BME280;1033;52.560;13.374;2023-07-08T09:17:00;101511.72;;;28.76;31.48
67015;BME280;1033;52.560;13.374;2023-07-08T09:19:39;101502.88;;;28.74;31.54
67015;BME280;1033;52.560;13.374;2023-07-08T09:22:14;101500.03;;;29.15;31.09
67015;BME280;1033;52.560;13.374;2023-07-08T09:24:48;101508.50;;;29.24;30.57
67015;BME280;1033;52.560;13.374;2023-07-08T09:27:18;101501.38;;;29.18;30.42
67015;BME280;1033;52.560;13.374;2023-07-08T09:29:49;101502.53;;;29.03;29.72
67015;BME280;1033;52.560;13.374;2023-07-08T09:32:20;101503.63;;;29.16;30.04
67015;BME280;1033;52.560;13.374;2023-07-08T09:34:51;101502.47;;;29.44;29.76
67015;BME280;1033;52.560;13.374;2023-07-08T09:37:26;101506.38;;;29.57;27.85
67015;BME280;1033;52.560;13.374;2023-07-08T09:39:57;101495.88;;;29.76;27.37
67015;BME280;1033;52.560;13.374;2023-07-08T09:42:29;101498.50;;;29.95;26.56
67015;BME280;1033;52.560;13.374;2023-07-08T09:45:01;101503.69;;;30.10;27.56
67015;BME280;1033;52.560;13.374;2023-07-08T09:47:35;101501.78;;;29.97;28.30
67015;BME280;1033;52.560;13.374;2023-07-08T09:50:18;101493.75;;;29.59;28.13
67015;BME280;1033;52.560;13.374;2023-07-08T09:52:47;101493.78;;;29.82;28.55
67015;BME280;1033;52.560;13.374;2023-07-08T09:55:18;101492.25;;;29.75;27.08
67015;BME280;1033;52.560;13.374;2023-07-08T09:57:49;101495.88;;;29.76;27.52
67015;BME280;1033;52.560;13.374;2023-07-08T10:00:32;101501.34;;;29.45;27.91
67015;BME280;1033;52.560;13.374;2023-07-08T10:03:05;101497.66;;;29.58;27.73
67015;BME280;1033;52.560;13.374;2023-07-08T10:05:40;101495.69;;;29.72;26.92
67015;BME280;1033;52.560;13.374;2023-07-08T10:08:15;101491.13;;;29.76;27.32
67015;BME280;1033;52.560;13.374;2023-07-08T10:10:48;101497.06;;;29.61;27.28
67015;BME280;1033;52.560;13.374;2023-07-08T10:13:21;101487.03;;;29.83;27.40
67015;BME280;1033;52.560;13.374;2023-07-08T10:15:56;101487.44;;;30.12;28.43
67015;BME280;1033;52.560;13.374;2023-07-08T10:18:28;101496.31;;;30.14;27.12
67015;BME280;1033;52.560;13.374;2023-07-08T10:21:03;101497.22;;;30.01;27.50
67015;BME280;1033;52.560;13.374;2023-07-08T10:23:47;101487.88;;;30.36;27.98
67015;BME280;1033;52.560;13.374;2023-07-08T10:26:25;101484.88;;;30.24;26.05
67015;BME280;1033;52.560;13.374;2023-07-08T10:29:07;101483.97;;;30.06;26.81
67015;BME280;1033;52.560;13.374;2023-07-08T10:31:49;101490.75;;;30.14;26.30
67015;BME280;1033;52.560;13.374;2023-07-08T10:34:39;101485.50;;;30.21;26.60
67015;BME280;1033;52.560;13.374;2023-07-08T10:37:22;101484.63;;;30.34;26.88
67015;BME280;1033;52.560;13.374;2023-07-08T10:40:02;101481.56;;;30.22;26.82
67015;BME280;1033;52.560;13.374;2023-07-08T10:42:53;101488.06;;;29.87;27.31
67015;BME280;1033;52.560;13.374;2023-07-08T10:45:29;101477.72;;;29.65;27.60
67015;BME280;1033;52.560;13.374;2023-07-08T10:48:14;101478.66;;;29.96;27.39
67015;BME280;1033;52.560;13.374;2023-07-08T10:51:01;101480.97;;;30.25;27.20
67015;BME280;1033;52.560;13.374;2023-07-08T10:53:47;101478.09;;;30.16;26.33
67015;BME280;1033;52.560;13.374;2023-07-08T10:56:30;101481.75;;;29.95;25.63
67015;BME280;1033;52.560;13.374;2023-07-08T10:59:24;101475.72;;;30.01;26.01
67015;BME280;1033;52.560;13.374;2023-07-08T11:04:58;101476.53;;;30.02;26.25
67015;BME280;1033;52.560;13.374;2023-07-08T11:07:39;101471.38;;;30.17;25.24
67015;BME280;1033;52.560;13.374;2023-07-08T11:10:14;101476.19;;;30.26;25.54
67015;BME280;1033;52.560;13.374;2023-07-08T11:12:48;101465.22;;;30.29;25.55
67015;BME280;1033;52.560;13.374;2023-07-08T11:15:23;101448.63;;;30.33;25.40
67015;BME280;1033;52.560;13.374;2023-07-08T11:17:58;101468.94;;;30.47;25.50
67015;BME280;1033;52.560;13.374;2023-07-08T11:20:36;101469.75;;;30.47;25.16
67015;BME280;1033;52.560;13.374;2023-07-08T11:23:12;101461.16;;;30.44;24.81
67015;BME280;1033;52.560;13.374;2023-07-08T11:25:47;101462.75;;;30.36;24.75
67015;BME280;1033;52.560;13.374;2023-07-08T11:28:20;101462.38;;;30.51;24.67
67015;BME280;1033;52.560;13.374;2023-07-08T11:30:52;101456.50;;;30.61;25.00
67015;BME280;1033;52.560;13.374;2023-07-08T11:33:25;101448.97;;;30.71;25.19
67015;BME280;1033;52.560;13.374;2023-07-08T11:35:57;101453.22;;;30.59;24.63
67015;BME280;1033;52.560;13.374;2023-07-08T11:38:29;101450.09;;;30.30;25.30
67015;BME280;1033;52.560;13.374;2023-07-08T11:41:04;101440.53;;;30.53;25.00
67015;BME280;1033;52.560;13.374;2023-07-08T11:43:45;101443.91;;;30.90;25.37
67015;BME280;1033;52.560;13.374;2023-07-08T11:46:19;101439.16;;;30.99;24.69
67015;BME280;1033;52.560;13.374;2023-07-08T11:48:51;101436.09;;;31.09;24.37
67015;BME280;1033;52.560;13.374;2023-07-08T11:51:24;101442.19;;;31.11;25.01
67015;BME280;1033;52.560;13.374;2023-07-08T11:54:01;101441.06;;;31.46;25.15
67015;BME280;1033;52.560;13.374;2023-07-08T11:56:49;101427.88;;;31.21;24.82
67015;BME280;1033;52.560;13.374;2023-07-08T11:59:20;101431.25;;;30.84;25.24
67015;BME280;1033;52.560;13.374;2023-07-08T12:01:54;101423.13;;;30.65;25.57
67015;BME280;1033;52.560;13.374;2023-07-08T12:04:31;101428.13;;;30.77;25.62
67015;BME280;1033;52.560;13.374;2023-07-08T12:07:15;101426.44;;;30.58;26.20
67015;BME280;1033;52.560;13.374;2023-07-08T12:09:48;101426.16;;;30.86;26.07
67015;BME280;1033;52.560;13.374;2023-07-08T12:12:24;101420.88;;;30.84;24.95
67015;BME280;1033;52.560;13.374;2023-07-08T12:14:58;101409.00;;;30.53;25.09
67015;BME280;1033;52.560;13.374;2023-07-08T12:17:30;101418.88;;;30.68;25.62
67015;BME280;1033;52.560;13.374;2023-07-08T12:20:02;101418.31;;;31.05;25.22
67015;BME280;1033;52.560;13.374;2023-07-08T12:22:39;101419.97;;;31.15;25.30
67015;BME280;1033;52.560;13.374;2023-07-08T12:25:13;101426.06;;;31.08;25.29
67015;BME280;1033;52.560;13.374;2023-07-08T12:27:44;101414.84;;;30.99;24.89
67015;BME280;1033;52.560;13.374;2023-07-08T12:30:18;101416.31;;;30.88;25.20
67015;BME280;1033;52.560;13.374;2023-07-08T12:32:47;101415.38;;;31.01;24.92
67015;BME280;1033;52.560;13.374;2023-07-08T12:35:23;101411.38;;;30.94;25.21
67015;BME280;1033;52.560;13.374;2023-07-08T12:37:58;101398.78;;;31.22;24.94
67015;BME280;1033;52.560;13.374;2023-07-08T12:40:29;101402.53;;;31.09;24.85
67015;BME280;1033;52.560;13.374;2023-07-08T12:42:59;101402.22;;;31.19;25.31
67015;BME280;1033;52.560;13.374;2023-07-08T12:45:31;101409.47;;;31.03;24.65
67015;BME280;1033;52.560;13.374;2023-07-08T12:48:00;101401.84;;;30.95;24.73
67015;BME280;1033;52.560;13.374;2023-07-08T12:50:30;101397.75;;;31.01;24.72
67015;BME280;1033;52.560;13.374;2023-07-08T12:53:00;101392.25;;;30.70;24.58
67015;BME280;1033;52.560;13.374;2023-07-08T12:55:32;101404.47;;;30.83;24.79
67015;BME280;1033;52.560;13.374;2023-07-08T12:58:02;101400.84;;;30.82;24.34
67015;BME280;1033;52.560;13.374;2023-07-08T13:00:36;101384.56;;;30.84;24.67
67015;BME280;1033;52.560;13.374;2023-07-08T13:03:11;101390.19;;;30.93;24.09
67015;BME280;1033;52.560;13.374;2023-07-08T13:05:43;101391.19;;;31.05;24.05
67015;BME280;1033;52.560;13.374;2023-07-08T13:08:15;101392.53;;;31.25;24.52
67015;BME280;1033;52.560;13.374;2023-07-08T13:10:46;101391.66;;;31.42;24.42
67015;BME280;1033;52.560;13.374;2023-07-08T13:13:20;101394.13;;;31.78;24.34
67015;BME280;1033;52.560;13.374;2023-07-08T13:15:51;101387.84;;;31.89;24.24
67015;BME280;1033;52.560;13.374;2023-07-08T13:18:21;101385.91;;;31.73;23.74
67015;BME280;1033;52.560;13.374;2023-07-08T13:20:53;101382.31;;;31.64;24.50